sensor_id;sensor_type;location;lat;lon;timestamp;pressure;altitude;pressure_sealevel;temperature;humidity
77112;BME280;66064;50.226;14.344;2024-01-30T00:00:00;101317.22;;;-1.57;100.00
77112;BME280;66064;50.226;14.344;2024-01-30T00:02:26;101318.50;;;-1.42;100.00
77112;BME280;66064;50.226;14.344;2024-01-30T00:04:52;101327.53;;;-1.38;100.00
77112;BME280;66064;50.226;14.344;2024-01-30T00:07:18;101321.91;;;-1.43;100.00
77112;BME280;66064;50.226;14.344;2024-01-30T00:09:46;101331.84;;;-1.39;100.00
77112;BME280;66064;50.226;14.344;2024-01-30T00:12:14;101327.41;;;-1.40;100.00
77112;BME280;66064;50.226;14.344;2024-01-30T00:14:41;101330.16;;;-1.38;100.00
77112;BME280;66064;50.226;14.344;2024-01-30T00:17:09;101334.72;;;-1.46;100.00
77112;BME280;66064;50.226;14.344;2024-01-30T00:19:35;101311.47;;;-1.63;100.00
77112;BME280;66064;50.226;14.344;2024-01-30T00:22:01;101323.59;;;-1.74;100.00
77112;BME280;66064;50.226;14.344;2024-01-30T00:24:27;101320.22;;;-1.53;100.00
77112;BME280;66064;50.226;14.344;2024-01-30T00:26:53;101315.09;;;-1.61;100.00
77112;BME280;66064;50.226;14.344;2024-01-30T00:29:19;101325.81;;;-1.58;100.00
77112;BME280;66064;50.226;14.344;2024-01-30T00:31:46;101303.88;;;-1.81;100.00
77112;BME280;66064;50.226;14.344;2024-01-30T00:34:11;101311.53;;;-1.92;100.00
77112;BME280;66064;50.226;14.344;2024-01-30T00:36:37;101334.53;;;-1.88;100.00
77112;BME280;66064;50.226;14.344;2024-01-30T00:39:03;101315.06;;;-2.02;100.00
77112;BME280;66064;50.226;14.344;2024-01-30T00:41:34;101306.69;;;-2.08;100.00
77112;BME280;66064;50.226;14.344;2024-01-30T00:44:00;101318.88;;;-1.78;100.00
77112;BME280;66064;50.226;14.344;2024-01-30T00:46:26;101319.97;;;-1.66;100.00
77112;BME280;66064;50.226;14.344;2024-01-30T00:48:52;101317.59;;;-1.73;100.00
77112;BME280;66064;50.226;14.344;2024-01-30T00:51:18;101304.41;;;-1.95;100.00
77112;BME280;66064;50.226;14.344;2024-01-30T00:53:44;101313.66;;;-1.88;100.00
77112;BME280;66064;50.226;14.344;2024-01-30T00:56:11;101292.13;;;-1.96;100.00
77112;BME280;66064;50.226;14.344;2024-01-30T00:58:37;101307.56;;;-1.79;100.00
77112;BME280;66064;50.226;14.344;2024-01-30T01:01:04;101301.41;;;-1.79;100.00
77112;BME280;66064;50.226;14.344;2024-01-30T01:03:30;101297.13;;;-1.79;100.00
77112;BME280;66064;50.226;14.344;2024-01-30T01:05:56;101293.31;;;-1.72;100.00
77112;BME280;66064;50.226;14.344;2024-01-30T01:08:21;101308.72;;;-1.65;100.00
77112;BME280;66064;50.226;14.344;2024-01-30T01:10:48;101296.72;;;-1.73;100.00
77112;BME280;66064;50.226;14.344;2024-01-30T01:13:14;101299.06;;;-1.66;100.00
77112;BME280;66064;50.226;14.344;2024-01-30T01:15:40;101300.38;;;-1.71;100.00
77112;BME280;66064;50.226;14.344;2024-01-30T01:18:06;101309.53;;;-1.66;100.00
77112;BME280;66064;50.226;14.344;2024-01-30T01:20:32;101306.34;;;-1.62;100.00
77112;BME280;66064;50.226;14.344;2024-01-30T01:22:58;101295.69;;;-1.65;100.00
77112;BME280;66064;50.226;14.344;2024-01-30T01:25:24;101304.03;;;-1.49;100.00
77112;BME280;66064;50.226;14.344;2024-01-30T01:27:50;101308.72;;;-1.45;100.00
77112;BME280;66064;50.226;14.344;2024-01-30T01:30:18;101307.94;;;-1.44;100.00
77112;BME280;66064;50.226;14.344;2024-01-30T01:32:50;101297.09;;;-1.58;100.00
77112;BME280;66064;50.226;14.344;2024-01-30T01:35:24;101303.66;;;-1.53;100.00
77112;BME280;66064;50.226;14.344;2024-01-30T01:37:51;101314.50;;;-1.49;100.00
77112;BME280;66064;50.226;14.344;2024-01-30T01:40:24;101315.41;;;-1.48;100.00
77112;BME280;66064;50.226;14.344;2024-01-30T01:42:51;101316.06;;;-1.51;100.00
77112;BME280;66064;50.226;14.344;2024-01-30T01:45:21;101307.72;;;-1.47;100.00
77112;BME280;66064;50.226;14.344;2024-01-30T01:47:51;101306.88;;;-1.46;100.00
77112;BME280;66064;50.226;14.344;2024-01-30T01:50:19;101304.53;;;-1.43;100.00
77112;BME280;66064;50.226;14.344;2024-01-30T01:52:50;101293.19;;;-1.53;100.00
77112;BME280;66064;50.226;14.344;2024-01-30T01:55:17;101308.34;;;-1.49;100.00
77112;BME280;66064;50.226;14.344;2024-01-30T01:57:47;101306.78;;;-1.47;100.00
77112;BME280;66064;50.226;14.344;2024-01-30T02:00:14;101280.78;;;-1.56;100.00
77112;BME280;66064;50.226;14.344;2024-01-30T02:02:39;101291.78;;;-1.50;100.00
77112;BME280;66064;50.226;14.344;2024-01-30T02:05:08;101298.41;;;-1.43;100.00
77112;BME280;66064;50.226;14.344;2024-01-30T02:07:34;101303.13;;;-1.39;100.00
77112;BME280;66064;50.226;14.344;2024-01-30T02:10:00;101299.75;;;-1.48;100.00
77112;BME280;66064;50.226;14.344;2024-01-30T02:12:26;101303.78;;;-1.52;100.00
77112;BME280;66064;50.226;14.344;2024-01-30T02:14:53;101285.78;;;-1.49;100.00
77112;BME280;66064;50.226;14.344;2024-01-30T02:17:20;101292.28;;;-1.44;100.00
77112;BME280;66064;50.226;14.344;2024-01-30T02:19:46;101292.81;;;-1.37;100.00
77112;BME280;66064;50.226;14.344;2024-01-30T02:22:12;101293.22;;;-1.33;100.00
77112;BME280;66064;50.226;14.344;2024-01-30T02:24:39;101300.38;;;-1.30;100.00
77112;BME280;66064;50.226;14.344;2024-01-30T02:27:05;101297.25;;;-1.36;100.00
77112;BME280;66064;50.226;14.344;2024-01-30T02:29:31;101285.88;;;-1.37;100.00
77112;BME280;66064;50.226;14.344;2024-01-30T02:31:57;101281.31;;;-1.39;100.00
77112;BME280;66064;50.226;14.344;2024-01-30T02:34:24;101299.84;;;-1.36;100.00
77112;BME280;66064;50.226;14.344;2024-01-30T02:36:49;101296.19;;;-1.38;100.00
77112;BME280;66064;50.226;14.344;2024-01-30T02:39:16;101296.06;;;-1.40;100.00
77112;BME280;66064;50.226;14.344;2024-01-30T02:41:42;101295.78;;;-1.43;100.00
77112;BME280;66064;50.226;14.344;2024-01-30T02:44:08;101287.84;;;-1.55;100.00
77112;BME280;66064;50.226;14.344;2024-01-30T02:46:34;101288.63;;;-1.46;100.00
77112;BME280;66064;50.226;14.344;2024-01-30T02:49:00;101287.84;;;-1.55;100.00
77112;BME280;66064;50.226;14.344;2024-01-30T02:51:26;101286.66;;;-1.58;100.00
77112;BME280;66064;50.226;14.344;2024-01-30T02:53:52;101293.44;;;-1.60;100.00
77112;BME280;66064;50.226;14.344;2024-01-30T02:56:18;101285.22;;;-1.55;100.00
77112;BME280;66064;50.226;14.344;2024-01-30T02:58:44;101289.81;;;-1.62;100.00
77112;BME280;66064;50.226;14.344;2024-01-30T03:01:10;101283.41;;;-1.66;100.00
77112;BME280;66064;50.226;14.344;2024-01-30T03:03:36;101282.63;;;-1.65;100.00
77112;BME280;66064;50.226;14.344;2024-01-30T03:06:02;101283.69;;;-1.63;100.00
77112;BME280;66064;50.226;14.344;2024-01-30T03:08:28;101274.81;;;-1.65;100.00
77112;BME280;66064;50.226;14.344;2024-01-30T03:10:54;101279.50;;;-1.71;100.00
77112;BME280;66064;50.226;14.344;2024-01-30T03:13:21;101268.78;;;-1.74;100.00
77112;BME280;66064;50.226;14.344;2024-01-30T03:15:49;101270.59;;;-1.73;100.00
77112;BME280;66064;50.226;14.344;2024-01-30T03:18:15;101252.84;;;-1.77;100.00
77112;BME280;66064;50.226;14.344;2024-01-30T03:20:41;101275.59;;;-1.66;100.00
77112;BME280;66064;50.226;14.344;2024-01-30T03:23:07;101257.56;;;-1.83;100.00
77112;BME280;66064;50.226;14.344;2024-01-30T03:25:33;101269.41;;;-1.77;100.00
77112;BME280;66064;50.226;14.344;2024-01-30T03:27:59;101256.50;;;-1.75;100.00
77112;BME280;66064;50.226;14.344;2024-01-30T03:30:25;101248.81;;;-1.84;100.00
77112;BME280;66064;50.226;14.344;2024-01-30T03:32:51;101260.56;;;-1.79;100.00
77112;BME280;66064;50.226;14.344;2024-01-30T03:35:18;101231.44;;;-1.93;100.00
77112;BME280;66064;50.226;14.344;2024-01-30T03:37:45;101249.34;;;-1.88;100.00
77112;BME280;66064;50.226;14.344;2024-01-30T03:40:11;101252.59;;;-1.90;100.00
77112;BME280;66064;50.226;14.344;2024-01-30T03:42:37;101236.41;;;-1.86;100.00
77112;BME280;66064;50.226;14.344;2024-01-30T03:45:04;101253.63;;;-1.88;100.00
77112;BME280;66064;50.226;14.344;2024-01-30T03:47:30;101254.69;;;-1.86;100.00
77112;BME280;66064;50.226;14.344;2024-01-30T03:49:57;101251.44;;;-1.84;100.00
77112;BME280;66064;50.226;14.344;2024-01-30T03:52:23;101249.72;;;-1.93;100.00
77112;BME280;66064;50.226;14.344;2024-01-30T03:54:49;101240.81;;;-2.05;100.00
77112;BME280;66064;50.226;14.344;2024-01-30T03:57:16;101250.63;;;-1.93;100.00
77112;BME280;66064;50.226;14.344;2024-01-30T03:59:42;101261.72;;;-1.95;100.00
77112;BME280;66064;50.226;14.344;2024-01-30T04:02:10;101238.75;;;-1.99;100.00
77112;BME280;66064;50.226;14.344;2024-01-30T04:04:37;101237.72;;;-1.91;100.00
77112;BME280;66064;50.226;14.344;2024-01-30T04:07:03;101248.69;;;-1.85;100.00
77112;BME280;66064;50.226;14.344;2024-01-30T04:09:29;101252.22;;;-1.85;100.00
77112;BME280;66064;50.226;14.344;2024-01-30T04:11:56;101249.75;;;-1.83;100.00
77112;BME280;66064;50.226;14.344;2024-01-30T04:14:22;101239.56;;;-1.70;100.00
77112;BME280;66064;50.226;14.344;2024-01-30T04:16:48;101242.56;;;-1.65;100.00
77112;BME280;66064;50.226;14.344;2024-01-30T04:19:14;101248.41;;;-1.58;100.00
77112;BME280;66064;50.226;14.344;2024-01-30T04:21:40;101228.84;;;-1.73;100.00
77112;BME280;66064;50.226;14.344;2024-01-30T04:24:06;101251.81;;;-1.59;100.00
77112;BME280;66064;50.226;14.344;2024-01-30T04:26:33;101252.34;;;-1.53;100.00
77112;BME280;66064;50.226;14.344;2024-01-30T04:28:58;101246.34;;;-1.52;100.00
77112;BME280;66064;50.226;14.344;2024-01-30T04:31:24;101235.78;;;-1.63;100.00
77112;BME280;66064;50.226;14.344;2024-01-30T04:33:50;101252.34;;;-1.83;100.00
77112;BME280;66064;50.226;14.344;2024-01-30T04:36:16;101255.09;;;-1.82;100.00
77112;BME280;66064;50.226;14.344;2024-01-30T04:38:42;101261.09;;;-1.83;100.00
77112;BME280;66064;50.226;14.344;2024-01-30T04:41:08;101255.19;;;-1.90;100.00
77112;BME280;66064;50.226;14.344;2024-01-30T04:43:34;101258.75;;;-1.80;100.00
77112;BME280;66064;50.226;14.344;2024-01-30T04:46:01;101256.50;;;-1.75;100.00
77112;BME280;66064;50.226;14.344;2024-01-30T04:48:27;101241.22;;;-1.91;100.00
77112;BME280;66064;50.226;14.344;2024-01-30T04:50:53;101252.44;;;-1.92;100.00
77112;BME280;66064;50.226;14.344;2024-01-30T04:53:19;101260.94;;;-1.84;100.00
77112;BME280;66064;50.226;14.344;2024-01-30T04:55:45;101261.59;;;-1.87;100.00
77112;BME280;66064;50.226;14.344;2024-01-30T04:58:11;101267.47;;;-1.89;100.00
77112;BME280;66064;50.226;14.344;2024-01-30T05:00:37;101267.47;;;-1.89;100.00
77112;BME280;66064;50.226;14.344;2024-01-30T05:03:03;101271.00;;;-1.79;100.00
77112;BME280;66064;50.226;14.344;2024-01-30T05:05:30;101250.78;;;-1.81;100.00
77112;BME280;66064;50.226;14.344;2024-01-30T05:07:56;101274.53;;;-1.68;100.00
77112;BME280;66064;50.226;14.344;2024-01-30T05:10:22;101267.34;;;-1.60;100.00
77112;BME280;66064;50.226;14.344;2024-01-30T05:12:48;101277.13;;;-1.58;100.00
77112;BME280;66064;50.226;14.344;2024-01-30T05:15:14;101269.81;;;-1.62;100.00
77112;BME280;66064;50.226;14.344;2024-01-30T05:17:40;101264.09;;;-1.58;100.00
77112;BME280;66064;50.226;14.344;2024-01-30T05:20:06;101269.81;;;-1.72;100.00
77112;BME280;66064;50.226;14.344;2024-01-30T05:22:32;101267.88;;;-1.74;100.00
77112;BME280;66064;50.226;14.344;2024-01-30T05:24:59;101261.34;;;-1.69;100.00
77112;BME280;66064;50.226;14.344;2024-01-30T05:27:25;101257.66;;;-1.92;100.00
77112;BME280;66064;50.226;14.344;2024-01-30T05:29:51;101259.13;;;-1.85;100.00
77112;BME280;66064;50.226;14.344;2024-01-30T05:32:16;101279.75;;;-1.68;100.00
77112;BME280;66064;50.226;14.344;2024-01-30T05:34:43;101272.44;;;-1.62;100.00
77112;BME280;66064;50.226;14.344;2024-01-30T05:37:08;101272.06;;;-1.66;100.00
77112;BME280;66064;50.226;14.344;2024-01-30T05:39:34;101268.78;;;-1.84;100.00
77112;BME280;66064;50.226;14.344;2024-01-30T05:42:01;101265.56;;;-2.31;100.00
77112;BME280;66064;50.226;14.344;2024-01-30T05:44:27;101273.75;;;-2.26;100.00
77112;BME280;66064;50.226;14.344;2024-01-30T05:46:53;101257.97;;;-2.38;100.00
77112;BME280;66064;50.226;14.344;2024-01-30T05:49:20;101266.91;;;-2.16;100.00
77112;BME280;66064;50.226;14.344;2024-01-30T05:51:46;101261.69;;;-2.16;100.00
77112;BME280;66064;50.226;14.344;2024-01-30T05:54:12;101269.38;;;-2.07;100.00
77112;BME280;66064;50.226;14.344;2024-01-30T05:56:38;101253.22;;;-2.13;100.00
77112;BME280;66064;50.226;14.344;2024-01-30T05:59:05;101260.38;;;-2.11;100.00
77112;BME280;66064;50.226;14.344;2024-01-30T06:01:37;101264.94;;;-2.08;100.00
77112;BME280;66064;50.226;14.344;2024-01-30T06:04:03;101269.25;;;-2.08;100.00
77112;BME280;66064;50.226;14.344;2024-01-30T06:06:29;101264.56;;;-2.02;100.00
77112;BME280;66064;50.226;14.344;2024-01-30T06:08:55;101265.34;;;-1.93;100.00
77112;BME280;66064;50.226;14.344;2024-01-30T06:11:21;101265.53;;;-1.82;100.00
77112;BME280;66064;50.226;14.344;2024-01-30T06:13:47;101266.94;;;-1.75;100.00
77112;BME280;66064;50.226;14.344;2024-01-30T06:16:14;101268.50;;;-1.77;100.00
77112;BME280;66064;50.226;14.344;2024-01-30T06:18:40;101266.81;;;-1.77;100.00
77112;BME280;66064;50.226;14.344;2024-01-30T06:21:06;101264.09;;;-1.68;100.00
77112;BME280;66064;50.226;14.344;2024-01-30T06:23:33;101267.75;;;-1.66;100.00
77112;BME280;66064;50.226;14.344;2024-01-30T06:25:59;101268.53;;;-1.67;100.00
77112;BME280;66064;50.226;14.344;2024-01-30T06:28:27;101272.16;;;-1.75;100.00
77112;BME280;66064;50.226;14.344;2024-01-30T06:30:52;101274.25;;;-1.71;100.00
77112;BME280;66064;50.226;14.344;2024-01-30T06:33:19;101270.34;;;-1.86;100.00
77112;BME280;66064;50.226;14.344;2024-01-30T06:35:44;101277.66;;;-1.82;100.00
77112;BME280;66064;50.226;14.344;2024-01-30T06:38:11;101280.66;;;-1.88;100.00
77112;BME280;66064;50.226;14.344;2024-01-30T06:40:39;101269.56;;;-1.85;100.00
77112;BME280;66064;50.226;14.344;2024-01-30T06:43:05;101281.44;;;-1.79;100.00
77112;BME280;66064;50.226;14.344;2024-01-30T06:45:31;101288.75;;;-1.85;100.00
77112;BME280;66064;50.226;14.344;2024-01-30T06:47:57;101278.72;;;-1.80;100.00
77112;BME280;66064;50.226;14.344;2024-01-30T06:50:23;101284.84;;;-1.69;100.00
77112;BME280;66064;50.226;14.344;2024-01-30T06:52:49;101270.75;;;-1.71;100.00
77112;BME280;66064;50.226;14.344;2024-01-30T06:55:15;101289.41;;;-1.57;100.00
77112;BME280;66064;50.226;14.344;2024-01-30T06:57:41;101284.97;;;-1.58;100.00
77112;BME280;66064;50.226;14.344;2024-01-30T07:00:07;101274.00;;;-1.74;100.00
77112;BME280;66064;50.226;14.344;2024-01-30T07:02:34;101285.47;;;-1.62;100.00
77112;BME280;66064;50.226;14.344;2024-01-30T07:05:00;101278.94;;;-1.77;100.00
77112;BME280;66064;50.226;14.344;2024-01-30T07:07:27;101290.47;;;-1.65;100.00
77112;BME280;66064;50.226;14.344;2024-01-30T07:09:52;101292.53;;;-1.61;100.00
77112;BME280;66064;50.226;14.344;2024-01-30T07:12:23;101273.09;;;-1.74;100.00
77112;BME280;66064;50.226;14.344;2024-01-30T07:14:50;101281.59;;;-1.67;100.00
77112;BME280;66064;50.226;14.344;2024-01-30T07:17:16;101286.81;;;-1.67;100.00
77112;BME280;66064;50.226;14.344;2024-01-30T07:19:42;101293.84;;;-1.56;100.00
77112;BME280;66064;50.226;14.344;2024-01-30T07:22:08;101285.09;;;-1.56;100.00
77112;BME280;66064;50.226;14.344;2024-01-30T07:24:34;101287.47;;;-1.49;100.00
77112;BME280;66064;50.226;14.344;2024-01-30T07:27:00;101298.16;;;-1.36;100.00
77112;BME280;66064;50.226;14.344;2024-01-30T07:29:26;101294.09;;;-1.43;100.00
77112;BME280;66064;50.226;14.344;2024-01-30T07:31:52;101299.84;;;-1.36;100.00
77112;BME280;66064;50.226;14.344;2024-01-30T07:34:18;101302.59;;;-1.35;100.00
77112;BME280;66064;50.226;14.344;2024-01-30T07:36:44;101299.06;;;-1.35;100.00
77112;BME280;66064;50.226;14.344;2024-01-30T07:39:11;101287.19;;;-1.42;100.00
77112;BME280;66064;50.226;14.344;2024-01-30T07:41:37;101274.13;;;-1.42;100.00
77112;BME280;66064;50.226;14.344;2024-01-30T07:44:03;101294.63;;;-1.36;100.00
77112;BME280;66064;50.226;14.344;2024-01-30T07:46:30;101291.78;;;-1.50;100.00
77112;BME280;66064;50.226;14.344;2024-01-30T07:48:56;101307.94;;;-1.54;100.00
77112;BME280;66064;50.226;14.344;2024-01-30T07:51:24;101304.44;;;-1.54;100.00
77112;BME280;66064;50.226;14.344;2024-01-30T07:53:49;101303.41;;;-1.46;100.00
77112;BME280;66064;50.226;14.344;2024-01-30T07:56:16;101298.28;;;-1.34;100.00
77112;BME280;66064;50.226;14.344;2024-01-30T07:58:42;101295.41;;;-1.27;100.00
77112;BME280;66064;50.226;14.344;2024-01-30T08:01:08;101307.16;;;-1.22;100.00
77112;BME280;66064;50.226;14.344;2024-01-30T08:03:33;101298.91;;;-1.27;100.00
77112;BME280;66064;50.226;14.344;2024-01-30T08:06:00;101297.78;;;-1.30;100.00
77112;BME280;66064;50.226;14.344;2024-01-30T08:08:25;101299.56;;;-1.29;100.00
77112;BME280;66064;50.226;14.344;2024-01-30T08:10:52;101293.56;;;-1.18;100.00
77112;BME280;66064;50.226;14.344;2024-01-30T08:13:18;101289.03;;;-1.31;100.00
77112;BME280;66064;50.226;14.344;2024-01-30T08:15:45;101290.97;;;-1.28;100.00
77112;BME280;66064;50.226;14.344;2024-01-30T08:18:11;101292.78;;;-1.27;100.00
77112;BME280;66064;50.226;14.344;2024-01-30T08:20:37;101305.31;;;-1.23;100.00
77112;BME280;66064;50.226;14.344;2024-01-30T08:23:03;101282.25;;;-1.49;100.00
77112;BME280;66064;50.226;14.344;2024-01-30T08:25:29;101302.44;;;-1.26;100.00
77112;BME280;66064;50.226;14.344;2024-01-30T08:27:55;101304.16;;;-1.17;100.00
77112;BME280;66064;50.226;14.344;2024-01-30T08:30:21;101299.06;;;-1.15;100.00
77112;BME280;66064;50.226;14.344;2024-01-30T08:32:47;101291.19;;;-1.05;100.00
77112;BME280;66064;50.226;14.344;2024-01-30T08:35:14;101293.78;;;-0.95;100.00
77112;BME280;66064;50.226;14.344;2024-01-30T08:37:41;101280.22;;;-1.11;100.00
77112;BME280;66064;50.226;14.344;2024-01-30T08:40:08;101276.19;;;-1.28;100.00
77112;BME280;66064;50.226;14.344;2024-01-30T08:42:35;101290.97;;;-1.38;100.00
77112;BME280;66064;50.226;14.344;2024-01-30T08:45:01;101285.50;;;-1.31;100.00
77112;BME280;66064;50.226;14.344;2024-01-30T08:47:28;101297.09;;;-1.18;100.00
77112;BME280;66064;50.226;14.344;2024-01-30T08:49:54;101283.00;;;-1.20;100.00
77112;BME280;66064;50.226;14.344;2024-01-30T08:52:20;101304.00;;;-1.08;100.00
77112;BME280;66064;50.226;14.344;2024-01-30T08:54:46;101294.97;;;-1.12;100.00
77112;BME280;66064;50.226;14.344;2024-01-30T08:57:12;101294.06;;;-1.12;100.00
77112;BME280;66064;50.226;14.344;2024-01-30T08:59:39;101289.38;;;-1.06;100.00
77112;BME280;66064;50.226;14.344;2024-01-30T09:02:05;101287.31;;;-1.20;100.00
77112;BME280;66064;50.226;14.344;2024-01-30T09:04:32;101282.59;;;-1.24;100.00
77112;BME280;66064;50.226;14.344;2024-01-30T09:06:58;101286.13;;;-1.24;100.00
77112;BME280;66064;50.226;14.344;2024-01-30T09:09:24;101283.66;;;-1.22;100.00
77112;BME280;66064;50.226;14.344;2024-01-30T09:11:50;101287.84;;;-1.14;100.00
77112;BME280;66064;50.226;14.344;2024-01-30T09:14:16;101277.41;;;-1.34;100.00
77112;BME280;66064;50.226;14.344;2024-01-30T09:16:42;101281.31;;;-1.50;100.00
77112;BME280;66064;50.226;14.344;2024-01-30T09:19:08;101299.84;;;-1.16;100.00
77112;BME280;66064;50.226;14.344;2024-01-30T09:21:34;101297.25;;;-1.36;100.00
77112;BME280;66064;50.226;14.344;2024-01-30T09:24:05;101300.13;;;-1.33;100.00
77112;BME280;66064;50.226;14.344;2024-01-30T09:26:31;101299.47;;;-1.31;100.00
77112;BME280;66064;50.226;14.344;2024-01-30T09:28:57;101300.22;;;-1.12;100.00
77112;BME280;66064;50.226;14.344;2024-01-30T09:31:23;101291.97;;;-1.06;100.00
77112;BME280;66064;50.226;14.344;2024-01-30T09:33:49;101287.69;;;-1.26;100.00
77112;BME280;66064;50.226;14.344;2024-01-30T09:36:16;101282.28;;;-0.97;100.00
77112;BME280;66064;50.226;14.344;2024-01-30T09:38:45;101289.16;;;-0.67;100.00
77112;BME280;66064;50.226;14.344;2024-01-30T09:41:11;101268.47;;;-0.64;100.00
77112;BME280;66064;50.226;14.344;2024-01-30T09:43:39;101280.84;;;-0.19;100.00
77112;BME280;66064;50.226;14.344;2024-01-30T09:46:11;101291.19;;;-0.31;100.00
77112;BME280;66064;50.226;14.344;2024-01-30T09:48:48;101283.94;;;-0.35;100.00
77112;BME280;66064;50.226;14.344;2024-01-30T09:51:16;101286.66;;;-0.12;100.00
77112;BME280;66064;50.226;14.344;2024-01-30T09:53:44;101283.88;;;-0.03;100.00
77112;BME280;66064;50.226;14.344;2024-01-30T09:56:12;101269.09;;;-0.03;100.00
77112;BME280;66064;50.226;14.344;2024-01-30T09:58:38;101289.00;;;-0.05;99.63
77112;BME280;66064;50.226;14.344;2024-01-30T10:01:06;101286.47;;;0.19;99.61
77112;BME280;66064;50.226;14.344;2024-01-30T10:03:33;101285.69;;;0.20;99.29
77112;BME280;66064;50.226;14.344;2024-01-30T10:06:00;101270.75;;;0.19;98.94
77112;BME280;66064;50.226;14.344;2024-01-30T10:08:27;101281.69;;;0.47;100.00
77112;BME280;66064;50.226;14.344;2024-01-30T10:10:52;101277.91;;;0.31;100.00
77112;BME280;66064;50.226;14.344;2024-01-30T10:13:18;101263.19;;;0.33;98.82
77112;BME280;66064;50.226;14.344;2024-01-30T10:15:44;101279.75;;;0.44;99.84
77112;BME280;66064;50.226;14.344;2024-01-30T10:18:11;101284.47;;;0.60;99.98
77112;BME280;66064;50.226;14.344;2024-01-30T10:20:37;101257.34;;;0.48;100.00
77112;BME280;66064;50.226;14.344;2024-01-30T10:23:03;101271.38;;;0.72;98.76
77112;BME280;66064;50.226;14.344;2024-01-30T10:25:31;101273.75;;;0.68;99.75
77112;BME280;66064;50.226;14.344;2024-01-30T10:27:58;101265.22;;;0.71;99.26
77112;BME280;66064;50.226;14.344;2024-01-30T10:30:24;101268.22;;;0.76;98.95
77112;BME280;66064;50.226;14.344;2024-01-30T10:32:51;101235.06;;;0.64;100.00
77112;BME280;66064;50.226;14.344;2024-01-30T10:35:17;101262.63;;;0.83;98.90
77112;BME280;66064;50.226;14.344;2024-01-30T10:37:44;101258.38;;;0.61;98.27
77112;BME280;66064;50.226;14.344;2024-01-30T10:40:13;101260.25;;;0.41;100.00
77112;BME280;66064;50.226;14.344;2024-01-30T10:42:45;101250.28;;;0.58;98.66
77112;BME280;66064;50.226;14.344;2024-01-30T10:45:12;101251.50;;;0.52;99.44
77112;BME280;66064;50.226;14.344;2024-01-30T10:47:40;101249.81;;;0.52;100.00
77112;BME280;66064;50.226;14.344;2024-01-30T10:50:09;101244.66;;;0.42;100.00
77112;BME280;66064;50.226;14.344;2024-01-30T10:52:36;101251.84;;;0.45;99.24
77112;BME280;66064;50.226;14.344;2024-01-30T10:55:04;101242.34;;;0.35;99.76
77112;BME280;66064;50.226;14.344;2024-01-30T10:57:35;101247.69;;;0.25;100.00
77112;BME280;66064;50.226;14.344;2024-01-30T11:00:06;101246.16;;;0.17;100.00
77112;BME280;66064;50.226;14.344;2024-01-30T11:02:41;101236.03;;;0.10;100.00
77112;BME280;66064;50.226;14.344;2024-01-30T11:05:09;101247.78;;;0.15;100.00
77112;BME280;66064;50.226;14.344;2024-01-30T11:07:38;101249.91;;;0.09;100.00
77112;BME280;66064;50.226;14.344;2024-01-30T11:10:05;101227.84;;;0.17;100.00
77112;BME280;66064;50.226;14.344;2024-01-30T11:12:39;101239.84;;;0.25;100.00
77112;BME280;66064;50.226;14.344;2024-01-30T11:15:12;101230.41;;;0.05;100.00
77112;BME280;66064;50.226;14.344;2024-01-30T11:20:20;101243.09;;;0.11;100.00
77112;BME280;66064;50.226;14.344;2024-01-30T11:22:49;101232.00;;;0.37;100.00
77112;BME280;66064;50.226;14.344;2024-01-30T11:25:16;101230.91;;;0.56;99.91
77112;BME280;66064;50.226;14.344;2024-01-30T11:27:44;101225.44;;;0.53;100.00
77112;BME280;66064;50.226;14.344;2024-01-30T11:30:10;101226.22;;;0.52;100.00
77112;BME280;66064;50.226;14.344;2024-01-30T11:32:37;101233.66;;;0.58;99.25
77112;BME280;66064;50.226;14.344;2024-01-30T11:35:04;101223.22;;;0.36;99.79
77112;BME280;66064;50.226;14.344;2024-01-30T11:37:36;101214.81;;;0.40;99.84
77112;BME280;66064;50.226;14.344;2024-01-30T11:40:07;101213.25;;;0.42;99.53
77112;BME280;66064;50.226;14.344;2024-01-30T11:42:36;101216.47;;;0.61;99.66
77112;BME280;66064;50.226;14.344;2024-01-30T11:45:06;101205.63;;;0.57;99.84
77112;BME280;66064;50.226;14.344;2024-01-30T11:47:35;101212.34;;;0.53;98.77
77112;BME280;66064;50.226;14.344;2024-01-30T11:50:01;101210.25;;;0.38;100.00
77112;BME280;66064;50.226;14.344;2024-01-30T11:52:29;101208.50;;;0.60;99.60
77112;BME280;66064;50.226;14.344;2024-01-30T11:54:55;101193.00;;;0.75;99.93
77112;BME280;66064;50.226;14.344;2024-01-30T11:57:22;101194.38;;;0.58;98.91
77112;BME280;66064;50.226;14.344;2024-01-30T11:59:49;101195.69;;;0.41;99.83
77112;BME280;66064;50.226;14.344;2024-01-30T12:02:16;101184.44;;;0.54;99.32
77112;BME280;66064;50.226;14.344;2024-01-30T12:04:42;101188.09;;;0.56;100.00
77112;BME280;66064;50.226;14.344;2024-01-30T12:07:09;101171.81;;;0.48;100.00
77112;BME280;66064;50.226;14.344;2024-01-30T12:09:34;101187.19;;;0.55;99.40
77112;BME280;66064;50.226;14.344;2024-01-30T12:12:00;101162.25;;;0.60;99.63
77112;BME280;66064;50.226;14.344;2024-01-30T12:14:26;101168.41;;;0.73;99.93
77112;BME280;66064;50.226;14.344;2024-01-30T12:16:52;101180.94;;;0.65;97.83
77112;BME280;66064;50.226;14.344;2024-01-30T12:19:25;101170.09;;;0.72;97.82
77112;BME280;66064;50.226;14.344;2024-01-30T12:21:58;101159.72;;;0.50;98.60
77112;BME280;66064;50.226;14.344;2024-01-30T12:24:26;101164.19;;;0.75;98.49
77112;BME280;66064;50.226;14.344;2024-01-30T12:26:57;101158.59;;;0.82;98.64
77112;BME280;66064;50.226;14.344;2024-01-30T12:29:24;101164.28;;;0.88;98.03
77112;BME280;66064;50.226;14.344;2024-01-30T12:31:53;101155.88;;;0.80;97.42